Time;durP1;ratioP1;P1;durP2;ratioP2;P2;SDS_P1;SDS_P2;PMS_P1;PMS_P2;Temp;Humidity;BMP_temperature;BMP_pressure;BME280_temperature;BME280_humidity;BME280_pressure;Samples;Min_cycle;Max_cycle;Signal;HPM_P1;HPM_P2
2021/05/22 00:01:44;;;;;;;5.00;1.53;;;;;;;7.75;77.13;99667.47;5069946;28;20024;-65
2021/05/22 00:04:09;;;;;;;4.83;1.87;;;;;;;7.75;76.99;99672.78;5070118;28;20123;-65
2021/05/22 00:06:35;;;;;;;9.70;2.50;;;;;;;7.72;76.94;99667.81;5069978;28;20047;-65
2021/05/22 00:09:00;;;;;;;11.30;2.92;;;;;;;7.71;76.83;99677.63;5070645;28;20035;-65
2021/05/22 00:11:26;;;;;;;4.97;1.53;;;;;;;7.72;76.63;99666.00;5070920;28;20032;-65
2021/05/22 00:13:51;;;;;;;3.73;1.73;;;;;;;7.67;76.92;99672.81;5069885;28;20037;-65
2021/05/22 00:16:17;;;;;;;6.57;2.00;;;;;;;7.57;77.27;99668.53;5070732;28;20035;-65
2021/05/22 00:18:42;;;;;;;8.97;2.43;;;;;;;7.60;76.94;99670.84;5069714;28;20039;-65
2021/05/22 00:21:08;;;;;;;7.32;1.55;;;;;;;7.65;76.61;99669.50;5070671;28;20059;-65
2021/05/22 00:23:33;;;;;;;8.03;1.43;;;;;;;7.60;76.94;99668.19;5053221;28;20037;-65
2021/05/22 00:25:58;;;;;;;5.20;1.40;;;;;;;7.63;76.26;99660.88;5069717;28;20469;-65
2021/05/22 00:28:24;;;;;;;10.43;1.60;;;;;;;7.67;75.93;99654.22;5070445;28;20362;-65
2021/05/22 00:30:49;;;;;;;5.97;1.50;;;;;;;7.61;76.18;99651.25;5070762;28;20546;-65
2021/05/22 00:33:15;;;;;;;11.83;2.80;;;;;;;7.72;75.64;99654.53;5070822;28;20040;-65
2021/05/22 00:35:42;;;;;;;12.93;2.03;;;;;;;7.70;75.53;99653.88;5069899;28;20114;-65
2021/05/22 00:38:07;;;;;;;10.68;1.92;;;;;;;7.65;75.83;99649.06;5069339;28;20037;-65
2021/05/22 00:40:33;;;;;;;7.03;1.80;;;;;;;7.68;75.56;99643.44;5069815;28;20037;-65
2021/05/22 00:42:58;;;;;;;6.70;2.37;;;;;;;7.67;75.42;99633.78;5070484;28;20047;-65
2021/05/22 00:45:23;;;;;;;4.70;1.87;;;;;;;7.69;74.80;99637.13;5070535;28;20033;-65
2021/05/22 00:47:56;;;;;;;5.50;2.00;;;;;;;7.67;74.87;99632.97;5069394;28;20043;-65
2021/05/22 00:50:25;;;;;;;13.43;2.70;;;;;;;7.69;74.26;99631.81;5071796;28;20127;-65
2021/05/22 00:52:51;;;;;;;6.20;2.22;;;;;;;7.60;74.70;99633.66;5073286;28;20075;-65
2021/05/22 00:55:17;;;;;;;6.93;1.52;;;;;;;7.55;74.80;99632.50;5074240;28;20108;-65
2021/05/22 00:57:43;;;;;;;9.93;2.00;;;;;;;7.58;74.65;99632.97;5073825;28;20115;-65
2021/05/22 01:00:20;;;;;;;7.50;1.75;;;;;;;7.64;74.64;99628.00;5074068;28;20454;-65
2021/05/22 01:02:47;;;;;;;8.00;3.13;;;;;;;7.66;74.82;99623.38;5073141;28;20393;-65
2021/05/22 01:05:13;;;;;;;9.15;1.50;;;;;;;7.58;75.34;99619.69;5074087;28;20117;-65
2021/05/22 01:07:40;;;;;;;6.55;1.77;;;;;;;7.57;75.38;99622.53;5073732;28;20075;-65
2021/05/22 01:10:07;;;;;;;4.32;1.52;;;;;;;7.63;75.26;99616.53;5073849;28;20051;-65
2021/05/22 01:12:36;;;;;;;9.55;2.22;;;;;;;7.57;75.82;99617.22;5073965;28;20036;-65
2021/05/22 01:15:08;;;;;;;8.00;2.28;;;;;;;7.57;75.72;99610.09;5072918;28;20047;-65
2021/05/22 01:17:37;;;;;;;6.80;2.58;;;;;;;7.57;75.78;99610.09;5072622;28;20115;-65
2021/05/22 01:20:42;;;;;;;9.98;2.28;;;;;;;7.57;76.11;99611.94;5073862;28;20052;-64
2021/05/22 01:23:21;;;;;;;6.00;1.33;;;;;;;7.44;76.61;99601.81;5073633;28;20218;-64
2021/05/22 01:25:48;;;;;;;5.15;2.05;;;;;;;7.48;77.09;99604.97;5073739;28;20040;-64
2021/05/22 01:28:15;;;;;;;7.38;2.97;;;;;;;7.49;77.30;99602.16;5072365;28;20040;-64
2021/05/22 01:30:43;;;;;;;6.80;2.58;;;;;;;7.55;76.85;99597.97;5072598;28;20032;-65
2021/05/22 01:33:09;;;;;;;6.07;3.47;;;;;;;7.66;76.18;99600.28;5072341;28;20394;-64
2021/05/22 01:35:35;;;;;;;6.82;2.78;;;;;;;7.70;76.09;99614.03;5073567;28;20024;-64
2021/05/22 01:38:00;;;;;;;7.00;2.10;;;;;;;7.77;75.21;99607.03;5073221;28;20081;-64
2021/05/22 01:40:25;;;;;;;6.23;1.50;;;;;;;7.81;75.39;99609.16;5055733;28;20068;-64
2021/05/22 01:42:51;;;;;;;5.67;2.27;;;;;;;7.84;74.89;99610.66;5072413;28;20083;-64
2021/05/22 01:45:20;;;;;;;16.30;2.63;;;;;;;7.76;75.23;99600.88;5072236;28;20048;-64
2021/05/22 01:47:47;;;;;;;4.93;2.08;;;;;;;7.77;75.31;99607.88;5055336;28;20032;-64
2021/05/22 01:50:16;;;;;;;7.00;1.70;;;;;;;7.81;75.05;99608.34;5073222;28;20412;-64
2021/05/22 01:52:43;;;;;;;18.92;2.97;;;;;;;7.64;75.81;99601.44;5072250;28;20044;-64
2021/05/22 01:55:10;;;;;;;5.63;2.42;;;;;;;7.61;75.85;99606.09;5055425;28;20032;-64
2021/05/22 01:57:36;;;;;;;4.50;2.15;;;;;;;7.59;75.79;99608.09;5071921;28;20043;-64
2021/05/22 02:00:04;;;;;;;5.63;2.10;;;;;;;7.60;75.74;99604.44;5072775;28;20036;-64
2021/05/22 02:03:10;;;;;;;5.15;2.13;;;;;;;7.57;75.90;99610.09;5072207;28;20047;-64
2021/05/22 02:05:36;;;;;;;5.03;2.10;;;;;;;7.57;76.04;99607.44;5071721;28;20076;-64
2021/05/22 02:08:02;;;;;;;4.25;1.67;;;;;;;7.59;75.88;99596.66;5071668;28;20544;-64
2021/05/22 02:10:29;;;;;;;8.43;2.05;;;;;;;7.54;76.50;99601.66;5072750;28;20071;-64
2021/05/22 02:12:57;;;;;;;7.45;1.70;;;;;;;7.57;76.07;99602.13;5071807;28;20044;-64
2021/05/22 02:15:27;;;;;;;7.88;1.92;;;;;;;7.60;76.21;99609.75;5071892;28;20039;-64
2021/05/22 02:17:54;;;;;;;3.85;2.00;;;;;;;7.60;76.20;99609.75;5072498;28;20338;-64
2021/05/22 02:20:21;;;;;;;6.68;2.45;;;;;;;7.63;75.94;99611.22;5071546;28;20028;-64
2021/05/22 02:22:47;;;;;;;10.38;2.75;;;;;;;7.66;75.68;99597.63;5072617;28;20094;-64
2021/05/22 02:25:14;;;;;;;7.82;3.35;;;;;;;7.59;76.00;99602.78;5072470;28;20605;-64
2021/05/22 02:27:40;;;;;;;3.17;2.10;;;;;;;7.54;76.33;99591.84;5072274;28;20032;-64
2021/05/22 02:30:10;;;;;;;8.82;2.63;;;;;;;7.49;76.41;99590.69;5072394;28;20565;-64
2021/05/22 02:32:39;;;;;;;5.60;2.15;;;;;;;7.45;76.58;99587.56;5072436;28;20124;-64
2021/05/22 02:35:06;;;;;;;8.00;2.58;;;;;;;7.44;76.49;99591.19;5071434;28;20051;-64
2021/05/22 02:37:33;;;;;;;6.78;1.83;;;;;;;7.33;76.92;99589.75;5070885;28;20382;-64
2021/05/22 02:40:02;;;;;;;13.02;3.67;;;;;;;7.34;76.92;99590.56;5071160;28;20037;-64
2021/05/22 02:42:31;;;;;;;6.65;2.33;;;;;;;7.37;76.62;99585.75;5071254;28;20043;-64
2021/05/22 02:44:58;;;;;;;10.80;2.63;;;;;;;7.32;76.82;99581.94;5071931;28;20037;-64
2021/05/22 02:47:26;;;;;;;5.72;2.50;;;;;;;7.30;76.93;99581.28;5071941;28;20189;-65
2021/05/22 02:49:57;;;;;;;6.85;2.53;;;;;;;7.28;76.88;99575.31;5071923;28;20376;-66
2021/05/22 02:52:26;;;;;;;8.57;2.60;;;;;;;7.27;76.82;99578.97;5054378;28;20040;-65
2021/05/22 02:54:53;;;;;;;4.75;1.80;;;;;;;7.17;77.21;99580.00;5071969;28;20043;-65
2021/05/22 02:57:19;;;;;;;7.22;2.10;;;;;;;7.12;77.31;99570.88;5071783;28;20475;-65
2021/05/22 02:59:47;;;;;;;14.18;2.45;;;;;;;7.12;77.22;99584.16;5070732;28;20062;-65
2021/05/22 03:02:12;;;;;;;10.50;2.25;;;;;;;7.14;77.20;99583.00;5070820;28;20037;-65
2021/05/22 03:04:37;;;;;;;8.37;2.10;;;;;;;7.11;77.33;99587.78;5071674;28;20036;-65
2021/05/22 03:07:03;;;;;;;9.17;2.40;;;;;;;7.07;77.26;99587.31;5071713;28;20032;-65
2021/05/22 03:09:29;;;;;;;10.30;2.33;;;;;;;7.05;77.48;99585.81;5070468;28;20194;-65
2021/05/22 03:11:54;;;;;;;6.97;1.85;;;;;;;7.10;77.08;99584.31;5071650;28;20044;-65
2021/05/22 03:14:20;;;;;;;8.90;2.37;;;;;;;7.07;77.44;99584.66;5070398;28;20043;-65
2021/05/22 03:16:45;;;;;;;5.00;2.60;;;;;;;7.06;77.20;99584.81;5070615;28;20688;-65
2021/05/22 03:19:11;;;;;;;5.50;2.07;;;;;;;7.11;76.81;99574.53;5071169;28;20036;-65
2021/05/22 03:21:37;;;;;;;6.75;1.80;;;;;;;7.10;77.01;99580.84;5071423;28;20040;-65
2021/05/22 03:24:03;;;;;;;8.32;1.90;;;;;;;7.07;76.95;99576.69;5071353;28;20508;-65
2021/05/22 03:26:28;;;;;;;;;;;;;;;7.13;76.92;99581.31;5070903;28;20141;-65
2021/05/22 03:28:54;;;;;;;;;;;;;;;7.14;76.48;99569.72;5070482;28;19965;-65
2021/05/22 03:31:19;;;;;;;5.77;2.13;;;;;;;7.18;76.35;99570.19;5071407;28;19916;-65
2021/05/22 03:33:45;;;;;;;10.35;2.13;;;;;;;7.27;75.79;99573.66;5070313;28;20036;-65
2021/05/22 03:36:10;;;;;;;6.53;2.20;;;;;;;7.26;75.82;99567.53;5071430;28;20042;-65
2021/05/22 03:38:35;;;;;;;6.40;1.70;;;;;;;7.28;75.22;99560.22;5070990;28;20457;-65
2021/05/22 03:41:01;;;;;;;4.87;1.50;;;;;;;7.35;75.15;99566.50;5053652;28;20067;-65
2021/05/22 03:43:26;;;;;;;7.77;1.93;;;;;;;7.37;75.09;99561.88;5070163;28;20436;-65
2021/05/22 03:45:51;;;;;;;5.13;1.50;;;;;;;7.44;74.54;99561.97;5071216;28;20039;-65
2021/05/22 03:48:17;;;;;;;6.33;1.40;;;;;;;7.50;74.42;99557.84;5070802;28;20028;-64
2021/05/22 03:50:42;;;;;;;9.20;1.60;;;;;;;7.51;74.43;99554.16;5070200;28;20059;-65
2021/05/22 03:53:08;;;;;;;8.80;2.33;;;;;;;7.53;74.12;99555.66;5070062;28;20036;-65
2021/05/22 03:55:34;;;;;;;9.13;2.08;;;;;;;7.55;74.12;99560.78;5070158;28;20037;-65
2021/05/22 03:58:00;;;;;;;10.93;3.47;;;;;;;7.55;74.39;99552.84;5069813;28;20120;-65
2021/05/22 04:00:25;;;;;;;6.90;2.10;;;;;;;7.55;74.26;99556.31;5070978;28;20051;-65
2021/05/22 04:02:51;;;;;;;10.23;2.10;;;;;;;7.53;74.34;99557.47;5070061;28;20171;-64
2021/05/22 04:05:16;;;;;;;6.90;1.87;;;;;;;7.61;74.19;99560.94;5070882;28;20047;-64
2021/05/22 04:07:41;;;;;;;7.33;2.13;;;;;;;7.57;74.67;99562.28;5069935;28;20032;-64
2021/05/22 04:10:07;;;;;;;7.47;2.00;;;;;;;7.60;74.54;99564.59;5070988;28;20029;-64
2021/05/22 04:12:32;;;;;;;9.48;3.25;;;;;;;7.63;74.32;99552.78;5070034;28;20036;-64
2021/05/22 04:14:58;;;;;;;8.83;2.07;;;;;;;7.67;74.59;99553.28;5053162;28;20041;-64
2021/05/22 04:17:23;;;;;;;13.43;2.27;;;;;;;7.67;74.82;99553.28;5070765;28;20089;-64
2021/05/22 04:19:49;;;;;;;7.63;2.80;;;;;;;7.82;73.96;99554.22;5070716;28;20044;-64
2021/05/22 04:22:14;;;;;;;4.80;1.20;;;;;;;7.88;73.59;99553.50;5069838;28;20477;-64
2021/05/22 04:24:39;;;;;;;11.43;2.50;;;;;;;7.97;73.52;99551.63;5069877;28;20600;-64
2021/05/22 04:27:05;;;;;;;7.87;2.07;;;;;;;8.00;73.01;99553.94;5073943;28;20033;-64
2021/05/22 04:29:31;;;;;;;9.90;3.45;;;;;;;8.11;73.29;99553.53;5056739;28;20144;-64
2021/05/22 04:31:56;;;;;;;9.18;1.77;;;;;;;8.19;72.90;99552.66;5074626;28;20121;-66
2021/05/22 04:34:22;;;;;;;13.10;1.60;;;;;;;8.24;72.66;99547.63;5057013;28;20474;-64
2021/05/22 04:36:47;;;;;;;6.13;2.42;;;;;;;8.35;72.73;99552.53;5073791;28;20037;-64
2021/05/22 04:39:13;;;;;;;9.13;1.87;;;;;;;8.39;72.80;99553.84;5073347;28;20036;-65
2021/05/22 04:41:38;;;;;;;4.17;1.87;;;;;;;8.44;72.82;99551.50;5073573;28;20431;-65
2021/05/22 04:44:04;;;;;;;10.43;2.37;;;;;;;8.59;71.99;99548.06;5074519;28;20496;-65
2021/05/22 04:46:29;;;;;;;6.22;1.73;;;;;;;8.60;72.08;99550.56;5073402;28;20042;-65
2021/05/22 04:48:55;;;;;;;7.37;1.50;;;;;;;8.66;71.97;99559.66;5074097;28;20090;-65
2021/05/22 04:51:23;;;;;;;5.53;1.63;;;;;;;8.80;71.58;99550.91;5073505;28;20744;-64
2021/05/22 04:53:48;;;;;;;10.00;2.22;;;;;;;8.85;71.34;99563.69;5074386;28;20048;-64
2021/05/22 04:56:13;;;;;;;8.93;1.83;;;;;;;9.03;70.89;99555.34;5073259;28;20037;-64
2021/05/22 04:58:39;;;;;;;13.13;1.97;;;;;;;8.98;70.73;99544.41;5073203;28;20051;-64
2021/05/22 05:01:04;;;;;;;9.97;1.73;;;;;;;9.11;70.69;99555.28;5074103;28;20107;-64
2021/05/22 05:03:29;;;;;;;6.37;2.93;;;;;;;9.15;70.61;99564.53;5074111;28;20079;-64
2021/05/22 05:05:55;;;;;;;8.20;1.93;;;;;;;9.32;69.73;99569.69;5074086;28;20064;-64
2021/05/22 05:08:21;;;;;;;3.77;1.53;;;;;;;9.42;69.74;99559.59;5072923;28;20117;-64
2021/05/22 05:10:47;;;;;;;7.82;1.70;;;;;;;9.58;69.23;99566.59;5073825;28;20094;-64
2021/05/22 05:13:14;;;;;;;3.83;1.50;;;;;;;9.72;69.44;99563.91;5073973;28;20037;-64
2021/05/22 05:15:39;;;;;;;;;;;;;;;9.89;68.61;99569.03;5056577;28;20474;-64
2021/05/22 05:18:05;;;;;;;6.20;1.67;;;;;;;9.96;68.41;99566.44;5072556;28;19920;-64
2021/05/22 05:20:30;;;;;;;4.63;1.25;;;;;;;10.13;67.50;99568.66;5073844;28;20303;-64
2021/05/22 05:22:56;;;;;;;7.67;1.30;;;;;;;10.21;67.19;99561.56;5073647;28;20127;-64
2021/05/22 05:25:21;;;;;;;3.53;1.20;;;;;;;10.55;66.24;99563.59;5073678;28;20040;-64
2021/05/22 05:27:47;;;;;;;4.53;1.27;;;;;;;10.02;66.82;99558.53;5072486;28;20040;-64
2021/05/22 05:30:13;;;;;;;5.27;1.50;;;;;;;9.89;67.87;99561.84;5072718;28;20052;-64
2021/05/22 05:32:38;;;;;;;4.68;1.40;;;;;;;9.99;67.08;99558.88;5072353;28;20056;-64
2021/05/22 05:35:04;;;;;;;8.07;2.00;;;;;;;10.00;67.06;99562.38;5055891;28;20058;-64
2021/05/22 05:37:29;;;;;;;4.63;1.58;;;;;;;10.37;66.48;99552.53;5070922;28;20441;-64
2021/05/22 05:39:54;;;;;;;4.70;2.03;;;;;;;9.86;67.69;99550.75;5073480;28;20090;-63
2021/05/22 05:42:20;;;;;;;5.07;1.13;;;;;;;10.13;66.71;99568.66;5072403;28;20123;-64
2021/05/22 05:44:45;;;;;;;9.63;1.93;;;;;;;10.73;64.88;99558.63;5072300;28;20139;-64
2021/05/22 05:47:10;;;;;;;2.70;1.33;;;;;;;11.15;63.43;99558.75;5073195;28;20079;-64
2021/05/22 05:49:36;;;;;;;4.33;0.93;;;;;;;11.59;61.72;99558.41;5073073;28;20048;-64
2021/05/22 05:52:01;;;;;;;9.50;1.53;;;;;;;12.09;60.39;99555.53;5073276;28;20442;-64
2021/05/22 05:54:27;;;;;;;5.73;1.40;;;;;;;12.00;60.22;99543.34;5072216;28;20475;-64
2021/05/22 05:56:52;;;;;;;8.32;2.60;;;;;;;11.88;59.91;99547.66;5073197;28;20037;-64
2021/05/22 05:59:18;;;;;;;7.57;1.27;;;;;;;11.97;60.27;99543.78;5071178;28;20181;-72
2021/05/22 06:01:44;;;;;;;4.23;1.87;;;;;;;11.83;61.35;99549.03;5072991;28;20092;-72
2021/05/22 06:04:09;;;;;;;6.60;1.23;;;;;;;12.01;60.36;99545.00;5073065;28;20092;-72
2021/05/22 06:06:36;;;;;;;7.03;1.75;;;;;;;11.62;60.13;99552.63;5055299;28;20087;-72
2021/05/22 06:09:02;;;;;;;;;;;;;;;11.88;60.15;99550.31;5073072;28;20040;-72
2021/05/22 06:11:30;;;;;;;5.97;1.13;;;;;;;11.93;60.52;99537.16;5072925;28;19913;-73
2021/05/22 06:13:56;;;;;;;4.13;1.10;;;;;;;11.76;60.17;99542.84;5072845;28;20507;-72
2021/05/22 06:16:33;;;;;;;3.15;1.10;;;;;;;11.45;62.17;99545.13;5071775;28;20036;-72
2021/05/22 06:18:59;;;;;;;8.57;1.10;;;;;;;11.55;61.79;99543.75;5072473;28;20033;-72
2021/05/22 06:21:24;;;;;;;6.85;1.77;;;;;;;11.61;61.14;99534.97;5055050;28;20029;-72
2021/05/22 06:23:50;;;;;;;4.53;1.50;;;;;;;11.96;60.66;99537.59;5072643;28;20044;-72
2021/05/22 06:26:15;;;;;;;5.63;1.90;;;;;;;11.52;61.10;99540.66;5072606;28;20040;-72
2021/05/22 06:28:41;;;;;;;5.13;1.90;;;;;;;12.88;58.00;99545.97;5072178;28;20036;-71
2021/05/22 06:31:06;;;;;;;11.50;1.53;;;;;;;12.45;58.20;99538.31;5072483;28;20086;-72
2021/05/22 06:33:32;;;;;;;8.05;1.40;;;;;;;12.70;57.78;99540.41;5071511;28;20041;-72
2021/05/22 06:35:58;;;;;;;6.85;1.35;;;;;;;12.57;57.97;99534.00;5071543;28;20050;-73
2021/05/22 06:38:23;;;;;;;5.87;1.63;;;;;;;11.86;59.54;99544.31;5072110;28;20028;-73
2021/05/22 06:40:49;;;;;;;2.20;1.53;;;;;;;11.37;60.28;99533.59;5071422;28;20700;-72
2021/05/22 06:43:15;;;;;;;5.40;1.40;;;;;;;11.56;60.62;99541.91;5072234;28;20028;-72
2021/05/22 06:45:57;;;;;;;8.03;1.90;;;;;;;11.49;60.04;99560.59;5072012;28;20620;-73
2021/05/22 06:48:23;;;;;;;4.35;1.58;;;;;;;11.63;59.86;99542.75;5071575;28;20290;-72
2021/05/22 06:50:48;;;;;;;6.97;1.43;;;;;;;11.61;60.62;99542.13;5072191;28;20348;-73
2021/05/22 06:53:13;;;;;;;6.80;1.53;;;;;;;11.66;60.25;99545.06;5072155;28;20028;-72
2021/05/22 06:55:39;;;;;;;8.17;1.33;;;;;;;11.56;60.87;99541.91;5071977;28;20023;-72
2021/05/22 06:58:06;;;;;;;5.70;1.63;;;;;;;11.83;61.06;99535.66;5071625;28;20032;-72
2021/05/22 07:00:31;;;;;;;3.15;1.65;;;;;;;12.39;60.18;99539.13;5070975;28;20481;-71
2021/05/22 07:02:57;;;;;;;3.40;1.08;;;;;;;12.14;59.02;99547.72;5071027;28;20037;-73
2021/05/22 07:05:22;;;;;;;8.27;1.40;;;;;;;12.35;59.24;99545.91;5071919;28;20419;-72
2021/05/22 07:07:48;;;;;;;5.27;1.57;;;;;;;11.95;59.44;99548.50;5071515;28;20036;-73
2021/05/22 07:10:13;;;;;;;3.00;1.47;;;;;;;11.97;59.37;99543.78;5071760;28;20107;-72
2021/05/22 07:12:39;;;;;;;10.50;2.30;;;;;;;11.81;59.11;99539.56;5070666;28;20406;-72
2021/05/22 07:15:06;;;;;;;8.20;1.90;;;;;;;12.09;59.37;99550.19;5071673;28;20103;-72
2021/05/22 07:17:31;;;;;;;3.17;1.15;;;;;;;11.93;59.86;99547.88;5071403;28;20472;-72
2021/05/22 07:19:57;;;;;;;5.30;1.00;;;;;;;11.88;60.80;99550.31;5071668;28;20040;-72
2021/05/22 07:22:22;;;;;;;6.87;1.27;;;;;;;11.59;60.94;99537.00;5054043;28;20032;-72
2021/05/22 07:24:48;;;;;;;5.13;1.67;;;;;;;11.40;60.61;99546.56;5070624;28;20507;-72
2021/05/22 07:27:15;;;;;;;3.33;1.30;;;;;;;11.45;60.70;99545.13;5071043;28;20294;-72
2021/05/22 07:29:42;;;;;;;9.38;1.33;;;;;;;11.51;60.38;99545.19;5071174;28;20469;-72
2021/05/22 07:32:07;;;;;;;5.90;1.27;;;;;;;11.78;60.93;99543.47;5070381;28;20115;-72
2021/05/22 07:34:33;;;;;;;6.93;1.20;;;;;;;11.76;60.25;99548.19;5071416;28;20112;-73
2021/05/22 07:36:59;;;;;;;5.65;1.33;;;;;;;11.53;60.32;99550.34;5071242;28;20124;-73
2021/05/22 07:39:24;;;;;;;2.60;1.47;;;;;;;11.54;60.45;99541.28;5071054;28;20115;-72
2021/05/22 07:41:49;;;;;;;3.70;1.17;;;;;;;11.68;60.05;99545.66;5071120;28;20127;-72
2021/05/22 07:44:15;;;;;;;4.00;1.50;;;;;;;11.86;60.13;99555.00;5070323;28;20089;-73
2021/05/22 07:46:41;;;;;;;3.10;1.02;;;;;;;11.91;59.79;99548.06;5071204;28;20540;-73
2021/05/22 07:49:07;;;;;;;4.20;0.93;;;;;;;12.01;58.81;99542.31;5071031;28;20123;-73
2021/05/22 07:51:32;;;;;;;5.27;1.07;;;;;;;12.23;57.14;99537.66;5053533;28;20136;-72
2021/05/22 07:53:58;;;;;;;5.57;1.40;;;;;;;12.34;57.21;99544.25;5071232;28;20063;-72
2021/05/22 07:56:23;;;;;;;14.33;1.43;;;;;;;12.11;57.81;99547.31;5071071;28;20468;-64
2021/05/22 07:58:49;;;;;;;3.53;1.40;;;;;;;11.84;58.91;99549.84;5070000;28;20477;-64
2021/05/22 08:01:14;;;;;;;5.47;1.20;;;;;;;11.86;58.68;99547.81;5070351;28;20028;-64
2021/05/22 08:03:39;;;;;;;4.77;1.40;;;;;;;11.69;59.18;99547.31;5071094;28;20362;-64
2021/05/22 08:06:05;;;;;;;2.23;1.00;;;;;;;11.77;58.91;99554.34;5071028;28;20053;-64
2021/05/22 08:08:31;;;;;;;6.53;1.60;;;;;;;11.81;59.06;99545.72;5070669;28;20075;-64
2021/05/22 08:10:56;;;;;;;4.22;1.10;;;;;;;11.80;58.79;99548.63;5069998;28;20068;-64
2021/05/22 08:13:21;;;;;;;5.80;2.33;;;;;;;11.92;58.61;99551.56;5053280;28;20143;-64
2021/05/22 08:15:47;;;;;;;6.17;1.67;;;;;;;12.00;58.47;99546.03;5070941;28;20025;-65
2021/05/22 08:18:12;;;;;;;3.73;1.20;;;;;;;12.13;58.47;99542.59;5070628;28;20094;-65
2021/05/22 08:20:38;;;;;;;3.07;1.47;;;;;;;12.10;58.32;99551.00;5070930;28;20047;-65
2021/05/22 08:23:04;;;;;;;;;;;;;;;12.01;58.26;99540.50;5071167;28;20028;-65
2021/05/22 08:25:29;;;;;;;4.75;1.50;;;;;;;12.08;58.54;99545.03;5069808;28;20296;-65
2021/05/22 08:27:55;;;;;;;9.20;3.30;;;;;;;11.86;59.53;99553.16;5069619;28;20076;-72
2021/05/22 08:30:21;;;;;;;10.13;1.63;;;;;;;11.48;59.90;99560.81;5069891;28;20413;-73
2021/05/22 08:32:47;;;;;;;7.65;1.95;;;;;;;11.55;60.42;99559.81;5053143;28;20424;-73
2021/05/22 08:35:13;;;;;;;3.92;1.77;;;;;;;11.45;59.74;99545.13;5070709;28;20454;-74
2021/05/22 08:37:40;;;;;;;8.10;2.35;;;;;;;11.64;60.73;99555.13;5069475;28;20055;-73
2021/05/22 08:40:05;;;;;;;;;;;;;;;11.74;59.97;99555.56;5070997;28;20927;-73
2021/05/22 08:42:32;;;;;;;;;;;;;;;11.77;59.88;99557.84;5053674;28;19946;-73
2021/05/22 08:45:11;;;;;;;5.28;1.23;;;;;;;11.73;60.55;99548.59;5069546;28;20341;-73
2021/05/22 08:47:37;;;;;;;4.15;1.45;;;;;;;11.79;60.08;99558.47;5069445;28;20040;-73
2021/05/22 08:50:06;;;;;;;7.32;1.80;;;;;;;11.93;60.70;99558.56;5070575;28;20116;-73
2021/05/22 08:52:31;;;;;;;2.92;1.40;;;;;;;12.20;59.70;99559.47;5070457;28;20038;-73
2021/05/22 08:54:56;;;;;;;8.13;1.30;;;;;;;12.11;59.44;99550.81;5069728;28;20033;-73
2021/05/22 08:57:22;;;;;;;6.67;1.43;;;;;;;11.96;59.69;99558.16;5070681;28;20039;-65
2021/05/22 08:59:48;;;;;;;4.43;1.50;;;;;;;11.70;59.82;99557.00;5070205;28;20432;-65
2021/05/22 09:02:19;;;;;;;2.50;1.13;;;;;;;11.56;60.59;99556.09;5070658;28;20036;-65
2021/05/22 09:05:12;;;;;;;3.53;1.35;;;;;;;11.69;60.36;99558.03;5052737;28;20370;-73
2021/05/22 09:07:43;;;;;;;5.57;1.40;;;;;;;11.77;60.63;99562.38;5069348;28;20039;-73
2021/05/22 09:10:21;;;;;;;4.57;2.17;;;;;;;11.83;59.49;99554.38;5069442;28;20074;-65
2021/05/22 09:12:54;;;;;;;2.97;1.20;;;;;;;11.83;60.60;99557.06;5073850;28;20032;-65
2021/05/22 09:15:22;;;;;;;2.28;1.30;;;;;;;11.84;60.56;99560.53;5072896;28;20477;-65
2021/05/22 09:17:49;;;;;;;7.25;2.05;;;;;;;11.91;61.17;99552.59;5073598;28;20607;-65
2021/05/22 09:20:41;;;;;;;3.72;1.30;;;;;;;11.88;62.21;99555.66;5073698;28;20032;-65
2021/05/22 09:23:12;;;;;;;5.25;1.63;;;;;;;11.80;62.02;99568.16;5073743;28;20543;-65
2021/05/22 09:25:40;;;;;;;3.05;1.27;;;;;;;11.52;63.87;99567.38;5071041;28;20072;-65
2021/05/22 09:28:07;;;;;;;4.15;1.08;;;;;;;11.25;64.70;99577.91;5071695;28;20040;-65
2021/05/22 09:30:34;;;;;;;4.00;2.15;;;;;;;11.19;65.88;99578.69;5070937;28;20107;-65
2021/05/22 09:33:00;;;;;;;7.03;1.65;;;;;;;11.24;67.28;99584.28;5072028;28;20050;-65
2021/05/22 09:35:26;;;;;;;5.72;1.77;;;;;;;11.22;67.55;99591.69;5072003;28;20048;-73
2021/05/22 09:38:01;;;;;;;3.20;1.00;;;;;;;10.83;67.52;99589.50;5070936;28;20181;-73
2021/05/22 09:40:34;;;;;;;5.82;1.33;;;;;;;10.84;67.84;99596.50;5072325;28;20052;-73
2021/05/22 09:43:02;;;;;;;3.60;1.35;;;;;;;10.92;69.47;99596.38;5073536;28;20458;-73
2021/05/22 09:45:38;;;;;;;3.65;1.30;;;;;;;11.11;69.12;99594.88;5073347;28;20085;-72
2021/05/22 09:48:15;;;;;;;4.30;1.88;;;;;;;11.21;69.96;99592.69;5072014;28;20036;-73
2021/05/22 09:50:49;;;;;;;2.63;1.10;;;;;;;11.11;69.61;99594.88;5072447;28;20055;-73
2021/05/22 09:53:38;;;;;;;3.72;1.80;;;;;;;11.35;70.33;99593.59;5073366;28;20032;-73
2021/05/22 09:56:17;;;;;;;3.15;1.50;;;;;;;10.96;71.21;99590.44;5061559;28;20051;-73
2021/05/22 09:58:54;;;;;;;6.05;1.50;;;;;;;10.97;71.54;99599.28;5073029;28;20047;-73
2021/05/22 10:01:29;;;;;;;8.50;2.70;;;;;;;10.88;70.28;99595.09;5073028;28;20446;-72
2021/05/22 10:03:55;;;;;;;3.30;1.63;;;;;;;10.73;72.29;99605.84;5072043;28;20048;-73
2021/05/22 10:06:22;;;;;;;9.38;2.38;;;;;;;10.64;72.41;99599.81;5072189;28;20071;-73
2021/05/22 10:08:48;;;;;;;5.80;1.90;;;;;;;10.36;73.94;99602.41;5071563;28;20123;-72
2021/05/22 10:11:13;;;;;;;4.07;2.00;;;;;;;10.29;74.66;99607.66;5072043;28;20115;-73
2021/05/22 10:13:41;;;;;;;3.47;2.40;;;;;;;10.35;74.98;99614.09;5071922;28;20772;-73
2021/05/22 10:16:07;;;;;;;4.70;2.45;;;;;;;10.21;75.93;99622.91;5071857;28;20040;-74
2021/05/22 10:18:33;;;;;;;5.35;2.35;;;;;;;10.22;77.53;99624.59;5071632;28;20047;-74
2021/05/22 10:21:01;;;;;;;5.32;2.28;;;;;;;10.28;78.37;99613.19;5072644;28;20051;-75
2021/05/22 10:23:27;;;;;;;5.07;2.58;;;;;;;10.31;78.19;99607.50;5071199;28;20489;-76
2021/05/22 10:25:55;;;;;;;5.97;2.83;;;;;;;10.08;77.42;99619.09;5072713;28;20116;-76
2021/05/22 10:28:21;;;;;;;4.97;2.10;;;;;;;9.90;78.05;99605.31;5071232;28;20074;-77
2021/05/22 10:30:47;;;;;;;9.25;2.85;;;;;;;9.79;77.59;99621.81;5072608;28;20376;-75
2021/05/22 10:33:14;;;;;;;4.60;1.70;;;;;;;9.86;77.92;99598.72;5071542;28;20119;-76
2021/05/22 10:35:52;;;;;;;4.78;1.63;;;;;;;9.79;77.26;99597.81;5071592;28;20450;-76
2021/05/22 10:38:32;;;;;;;6.03;2.35;;;;;;;9.88;77.98;99599.34;5071266;28;20350;-76
2021/05/22 10:40:59;;;;;;;4.40;2.25;;;;;;;9.95;76.04;99610.94;5054681;28;20036;-76
2021/05/22 10:44:01;;;;;;;1.60;1.35;;;;;;;10.10;77.90;99590.41;5071420;28;20109;-76
2021/05/22 10:46:26;;;;;;;3.72;1.63;;;;;;;10.09;78.19;99599.41;5009703;28;20085;-77
2021/05/22 10:49:00;;;;;;;7.33;2.20;;;;;;;10.09;76.81;99598.56;5058915;28;20060;-75
2021/05/22 10:51:32;;;;;;;4.68;1.58;;;;;;;10.06;77.78;99585.63;5054052;28;20609;-75
2021/05/22 10:54:01;;;;;;;4.20;1.90;;;;;;;10.12;80.32;99598.22;5054423;28;20125;-75
2021/05/22 10:56:26;;;;;;;13.38;2.10;;;;;;;9.92;79.11;99604.13;5071379;28;20450;-75
2021/05/22 10:58:57;;;;;;;3.85;1.80;;;;;;;9.86;80.82;99591.56;5071766;28;20052;-74
2021/05/22 11:01:23;;;;;;;6.55;1.80;;;;;;;9.96;80.72;99591.25;5070737;28;20035;-74
2021/05/22 11:04:07;;;;;;;5.23;2.20;;;;;;;9.91;79.82;99597.16;5071843;28;20029;-75
2021/05/22 11:06:57;;;;;;;3.88;2.10;;;;;;;9.81;81.12;99601.09;5070852;28;20078;-74
2021/05/22 11:09:26;;;;;;;6.78;3.20;;;;;;;9.72;81.44;99598.53;5071456;28;20102;-75
2021/05/22 11:11:52;;;;;;;5.55;2.53;;;;;;;9.62;81.72;99603.34;5071831;28;20121;-74
2021/05/22 11:14:37;;;;;;;6.93;2.83;;;;;;;9.64;82.10;99601.28;5071534;28;20378;-74
2021/05/22 11:17:26;;;;;;;9.50;2.53;;;;;;;9.78;81.98;99606.81;5071676;28;20393;-75
2021/05/22 11:20:02;;;;;;;5.75;2.30;;;;;;;9.88;80.61;99586.88;5071496;28;20417;-74
2021/05/22 11:22:31;;;;;;;7.55;2.92;;;;;;;9.85;81.60;99607.72;5071301;28;20033;-74
2021/05/22 11:25:06;;;;;;;3.50;2.17;;;;;;;9.62;81.68;99606.00;5070519;28;20093;-74
2021/05/22 11:27:44;;;;;;;3.97;2.03;;;;;;;9.76;82.17;99611.50;5071390;28;20120;-74
2021/05/22 11:30:11;;;;;;;3.72;2.45;;;;;;;9.81;82.77;99611.75;5070421;28;20093;-74
2021/05/22 11:32:56;;;;;;;8.13;2.53;;;;;;;9.72;82.01;99619.88;5070626;28;20414;-74
2021/05/22 11:35:24;;;;;;;6.90;2.38;;;;;;;9.79;82.82;99603.16;5071610;28;20634;-74
2021/05/22 11:37:50;;;;;;;4.93;2.20;;;;;;;9.75;83.11;99623.19;5070209;28;20049;-74
2021/05/22 11:40:42;;;;;;;3.42;2.45;;;;;;;9.60;83.85;99612.50;5070317;28;20056;-75
2021/05/22 11:43:18;;;;;;;5.95;2.50;;;;;;;9.68;83.79;99613.25;5071137;28;20040;-74